sensor_id;sensor_type;location;lat;lon;timestamp;P1;durP1;ratioP1;P2;durP2;ratioP2
13319;SDS011;59599;47.608;12.190;2024-03-07T05:00:42;9.17;;;8.27;;
13319;SDS011;59599;47.608;12.190;2024-03-07T05:03:08;10.60;;;9.50;;
13319;SDS011;59599;47.608;12.190;2024-03-07T05:05:34;9.90;;;8.53;;
13319;SDS011;59599;47.608;12.190;2024-03-07T05:08:00;9.73;;;8.73;;
13319;SDS011;59599;47.608;12.190;2024-03-07T05:10:26;9.87;;;8.90;;
13319;SDS011;59599;47.608;12.190;2024-03-07T05:12:54;9.80;;;8.80;;
13319;SDS011;59599;47.608;12.190;2024-03-07T05:15:20;10.30;;;9.30;;
13319;SDS011;59599;47.608;12.190;2024-03-07T05:17:50;9.67;;;8.63;;
13319;SDS011;59599;47.608;12.190;2024-03-07T05:20:16;9.73;;;8.83;;
13319;SDS011;59599;47.608;12.190;2024-03-07T05:22:42;9.57;;;8.67;;
13319;SDS011;59599;47.608;12.190;2024-03-07T05:25:17;10.43;;;9.33;;
13319;SDS011;59599;47.608;12.190;2024-03-07T05:27:47;9.20;;;8.30;;
13319;SDS011;59599;47.608;12.190;2024-03-07T05:30:16;10.10;;;9.10;;
13319;SDS011;59599;47.608;12.190;2024-03-07T05:32:42;10.27;;;9.27;;
13319;SDS011;59599;47.608;12.190;2024-03-07T05:35:08;10.13;;;9.13;;
13319;SDS011;59599;47.608;12.190;2024-03-07T05:37:36;9.20;;;8.30;;
13319;SDS011;59599;47.608;12.190;2024-03-07T05:40:01;9.27;;;8.37;;
13319;SDS011;59599;47.608;12.190;2024-03-07T05:42:29;10.57;;;9.10;;
13319;SDS011;59599;47.608;12.190;2024-03-07T05:44:56;9.43;;;8.53;;
13319;SDS011;59599;47.608;12.190;2024-03-07T05:47:22;9.63;;;8.70;;
13319;SDS011;59599;47.608;12.190;2024-03-07T05:49:49;9.30;;;8.40;;
13319;SDS011;59599;47.608;12.190;2024-03-07T05:52:15;9.90;;;8.90;;
13319;SDS011;59599;47.608;12.190;2024-03-07T05:54:41;9.70;;;8.70;;
13319;SDS011;59599;47.608;12.190;2024-03-07T05:57:08;9.87;;;8.67;;
13319;SDS011;59599;47.608;12.190;2024-03-07T05:59:35;9.60;;;8.70;;
13319;SDS011;59599;47.608;12.190;2024-03-07T06:02:01;9.70;;;8.70;;
13319;SDS011;59599;47.608;12.190;2024-03-07T06:04:27;9.70;;;8.80;;
13319;SDS011;59599;47.608;12.190;2024-03-07T06:06:54;10.20;;;9.03;;
13319;SDS011;59599;47.608;12.190;2024-03-07T06:09:20;9.50;;;8.60;;
13319;SDS011;59599;47.608;12.190;2024-03-07T06:11:48;10.60;;;9.60;;
13319;SDS011;59599;47.608;12.190;2024-03-07T06:14:14;10.53;;;9.13;;
13319;SDS011;59599;47.608;12.190;2024-03-07T06:16:41;10.40;;;9.40;;
13319;SDS011;59599;47.608;12.190;2024-03-07T06:19:07;12.20;;;9.53;;
13319;SDS011;59599;47.608;12.190;2024-03-07T06:21:33;9.90;;;9.00;;
13319;SDS011;59599;47.608;12.190;2024-03-07T06:23:59;10.00;;;9.10;;
13319;SDS011;59599;47.608;12.190;2024-03-07T06:26:26;10.27;;;9.27;;
13319;SDS011;59599;47.608;12.190;2024-03-07T06:29:16;10.17;;;9.17;;
13319;SDS011;59599;47.608;12.190;2024-03-07T06:31:42;11.60;;;10.10;;
13319;SDS011;59599;47.608;12.190;2024-03-07T06:34:08;12.50;;;11.20;;
13319;SDS011;59599;47.608;12.190;2024-03-07T06:36:34;11.90;;;10.70;;
13319;SDS011;59599;47.608;12.190;2024-03-07T06:39:00;10.67;;;9.57;;
13319;SDS011;59599;47.608;12.190;2024-03-07T06:41:27;11.13;;;9.70;;
13319;SDS011;59599;47.608;12.190;2024-03-07T06:43:53;12.77;;;11.13;;
13319;SDS011;59599;47.608;12.190;2024-03-07T06:46:20;10.80;;;9.70;;
13319;SDS011;59599;47.608;12.190;2024-03-07T06:48:46;12.13;;;10.83;;
13319;SDS011;59599;47.608;12.190;2024-03-07T06:51:12;13.07;;;11.67;;
13319;SDS011;59599;47.608;12.190;2024-03-07T06:53:38;14.17;;;12.77;;
13319;SDS011;59599;47.608;12.190;2024-03-07T06:56:04;10.87;;;9.87;;
13319;SDS011;59599;47.608;12.190;2024-03-07T06:58:31;10.63;;;9.27;;
13319;SDS011;59599;47.608;12.190;2024-03-07T07:00:57;10.70;;;9.60;;
13319;SDS011;59599;47.608;12.190;2024-03-07T07:03:24;10.33;;;9.23;;
13319;SDS011;59599;47.608;12.190;2024-03-07T07:05:50;10.23;;;9.30;;
13319;SDS011;59599;47.608;12.190;2024-03-07T07:08:16;11.37;;;10.27;;
13319;SDS011;59599;47.608;12.190;2024-03-07T07:10:42;11.30;;;10.20;;
13319;SDS011;59599;47.608;12.190;2024-03-07T07:13:08;11.00;;;10.00;;
13319;SDS011;59599;47.608;12.190;2024-03-07T07:15:35;10.90;;;9.80;;
13319;SDS011;59599;47.608;12.190;2024-03-07T07:18:02;11.47;;;10.33;;
13319;SDS011;59599;47.608;12.190;2024-03-07T07:20:28;12.70;;;11.30;;
13319;SDS011;59599;47.608;12.190;2024-03-07T07:22:54;10.87;;;9.77;;
13319;SDS011;59599;47.608;12.190;2024-03-07T07:25:19;12.70;;;11.03;;
13319;SDS011;59599;47.608;12.190;2024-03-07T07:27:47;11.60;;;10.40;;
13319;SDS011;59599;47.608;12.190;2024-03-07T07:30:14;10.70;;;9.70;;
13319;SDS011;59599;47.608;12.190;2024-03-07T07:32:40;12.10;;;10.00;;
13319;SDS011;59599;47.608;12.190;2024-03-07T07:35:07;11.33;;;10.13;;
13319;SDS011;59599;47.608;12.190;2024-03-07T07:37:37;10.20;;;9.20;;
13319;SDS011;59599;47.608;12.190;2024-03-07T07:40:04;12.00;;;9.77;;
13319;SDS011;59599;47.608;12.190;2024-03-07T07:42:33;11.67;;;9.73;;
13319;SDS011;59599;47.608;12.190;2024-03-07T07:45:00;11.53;;;10.33;;
13319;SDS011;59599;47.608;12.190;2024-03-07T07:47:25;11.13;;;9.43;;
13319;SDS011;59599;47.608;12.190;2024-03-07T07:49:51;11.43;;;9.10;;
13319;SDS011;59599;47.608;12.190;2024-03-07T07:52:17;12.77;;;10.17;;
13319;SDS011;59599;47.608;12.190;2024-03-07T07:54:43;10.07;;;8.90;;
13319;SDS011;59599;47.608;12.190;2024-03-07T07:57:09;12.03;;;9.10;;
13319;SDS011;59599;47.608;12.190;2024-03-07T07:59:35;14.53;;;9.43;;
13319;SDS011;59599;47.608;12.190;2024-03-07T08:02:01;10.77;;;9.67;;
13319;SDS011;59599;47.608;12.190;2024-03-07T08:04:31;9.37;;;8.27;;
13319;SDS011;59599;47.608;12.190;2024-03-07T08:06:57;9.93;;;7.83;;
13319;SDS011;59599;47.608;12.190;2024-03-07T08:09:23;9.23;;;8.33;;
13319;SDS011;59599;47.608;12.190;2024-03-07T08:11:49;10.10;;;8.30;;
13319;SDS011;59599;47.608;12.190;2024-03-07T08:14:17;10.67;;;7.90;;
13319;SDS011;59599;47.608;12.190;2024-03-07T08:16:43;9.40;;;7.87;;
13319;SDS011;59599;47.608;12.190;2024-03-07T08:19:13;10.87;;;8.30;;
13319;SDS011;59599;47.608;12.190;2024-03-07T08:21:39;10.70;;;7.80;;
13319;SDS011;59599;47.608;12.190;2024-03-07T08:24:05;11.47;;;8.27;;
13319;SDS011;59599;47.608;12.190;2024-03-07T08:26:35;10.57;;;7.63;;
13319;SDS011;59599;47.608;12.190;2024-03-07T08:29:01;10.17;;;7.70;;
13319;SDS011;59599;47.608;12.190;2024-03-07T08:31:28;8.13;;;6.97;;
13319;SDS011;59599;47.608;12.190;2024-03-07T08:33:53;11.27;;;8.10;;
13319;SDS011;59599;47.608;12.190;2024-03-07T08:36:19;7.37;;;6.30;;
13319;SDS011;59599;47.608;12.190;2024-03-07T08:38:45;8.50;;;7.03;;
13319;SDS011;59599;47.608;12.190;2024-03-07T08:41:11;6.67;;;5.40;;
13319;SDS011;59599;47.608;12.190;2024-03-07T08:43:37;7.73;;;5.53;;
13319;SDS011;59599;47.608;12.190;2024-03-07T08:46:03;8.23;;;5.30;;
13319;SDS011;59599;47.608;12.190;2024-03-07T08:48:29;6.67;;;5.23;;
13319;SDS011;59599;47.608;12.190;2024-03-07T08:50:54;8.53;;;5.67;;
13319;SDS011;59599;47.608;12.190;2024-03-07T08:53:20;7.27;;;5.17;;
13319;SDS011;59599;47.608;12.190;2024-03-07T08:55:47;6.17;;;4.60;;
13319;SDS011;59599;47.608;12.190;2024-03-07T08:58:12;5.80;;;4.90;;
13319;SDS011;59599;47.608;12.190;2024-03-07T09:00:38;5.47;;;4.40;;
13319;SDS011;59599;47.608;12.190;2024-03-07T09:03:04;5.63;;;4.60;;
13319;SDS011;59599;47.608;12.190;2024-03-07T09:05:34;6.53;;;4.70;;
13319;SDS011;59599;47.608;12.190;2024-03-07T09:08:00;5.27;;;4.20;;
13319;SDS011;59599;47.608;12.190;2024-03-07T09:10:26;6.00;;;4.60;;
13319;SDS011;59599;47.608;12.190;2024-03-07T09:12:54;5.27;;;3.77;;
13319;SDS011;59599;47.608;12.190;2024-03-07T09:15:20;5.10;;;3.93;;
13319;SDS011;59599;47.608;12.190;2024-03-07T09:17:46;6.27;;;3.90;;
13319;SDS011;59599;47.608;12.190;2024-03-07T09:20:12;6.33;;;3.63;;
13319;SDS011;59599;47.608;12.190;2024-03-07T09:22:44;8.57;;;5.57;;
13319;SDS011;59599;47.608;12.190;2024-03-07T09:25:10;4.20;;;3.80;;
13319;SDS011;59599;47.608;12.190;2024-03-07T09:27:39;4.80;;;3.60;;
13319;SDS011;59599;47.608;12.190;2024-03-07T09:30:06;4.03;;;3.60;;
13319;SDS011;59599;47.608;12.190;2024-03-07T09:32:39;5.57;;;3.80;;
13319;SDS011;59599;47.608;12.190;2024-03-07T09:35:06;6.70;;;3.70;;
13319;SDS011;59599;47.608;12.190;2024-03-07T09:37:36;4.43;;;3.80;;
13319;SDS011;59599;47.608;12.190;2024-03-07T09:40:02;4.80;;;3.70;;
13319;SDS011;59599;47.608;12.190;2024-03-07T09:42:29;4.87;;;4.20;;
13319;SDS011;59599;47.608;12.190;2024-03-07T09:44:56;4.70;;;4.17;;
13319;SDS011;59599;47.608;12.190;2024-03-07T09:47:23;4.87;;;3.80;;
13319;SDS011;59599;47.608;12.190;2024-03-07T09:49:49;5.47;;;3.60;;
13319;SDS011;59599;47.608;12.190;2024-03-07T09:52:17;3.90;;;3.07;;
13319;SDS011;59599;47.608;12.190;2024-03-07T09:54:43;3.97;;;3.17;;
13319;SDS011;59599;47.608;12.190;2024-03-07T09:57:09;3.97;;;3.17;;
13319;SDS011;59599;47.608;12.190;2024-03-07T09:59:36;3.57;;;2.93;;
13319;SDS011;59599;47.608;12.190;2024-03-07T10:02:04;3.90;;;3.00;;
13319;SDS011;59599;47.608;12.190;2024-03-07T10:04:35;4.90;;;3.43;;
13319;SDS011;59599;47.608;12.190;2024-03-07T10:07:06;6.30;;;3.40;;
13319;SDS011;59599;47.608;12.190;2024-03-07T10:09:31;4.23;;;3.13;;
13319;SDS011;59599;47.608;12.190;2024-03-07T10:12:01;4.23;;;3.10;;
13319;SDS011;59599;47.608;12.190;2024-03-07T10:14:27;4.00;;;3.27;;
13319;SDS011;59599;47.608;12.190;2024-03-07T10:16:57;4.00;;;3.20;;
13319;SDS011;59599;47.608;12.190;2024-03-07T10:19:23;3.60;;;3.00;;
13319;SDS011;59599;47.608;12.190;2024-03-07T10:21:50;5.63;;;3.50;;
13319;SDS011;59599;47.608;12.190;2024-03-07T10:24:16;3.33;;;2.70;;
13319;SDS011;59599;47.608;12.190;2024-03-07T10:26:42;3.97;;;3.43;;
13319;SDS011;59599;47.608;12.190;2024-03-07T10:29:08;3.40;;;3.10;;
13319;SDS011;59599;47.608;12.190;2024-03-07T10:31:34;3.17;;;2.83;;
13319;SDS011;59599;47.608;12.190;2024-03-07T10:34:03;5.97;;;3.43;;
13319;SDS011;59599;47.608;12.190;2024-03-07T10:36:30;4.57;;;2.93;;
13319;SDS011;59599;47.608;12.190;2024-03-07T10:38:57;7.17;;;2.80;;
13319;SDS011;59599;47.608;12.190;2024-03-07T10:41:28;4.13;;;2.67;;
13319;SDS011;59599;47.608;12.190;2024-03-07T10:43:55;3.77;;;2.63;;
13319;SDS011;59599;47.608;12.190;2024-03-07T10:46:24;4.23;;;3.03;;
13319;SDS011;59599;47.608;12.190;2024-03-07T10:48:51;2.97;;;2.47;;
13319;SDS011;59599;47.608;12.190;2024-03-07T10:51:21;2.70;;;2.33;;
13319;SDS011;59599;47.608;12.190;2024-03-07T10:54:01;4.20;;;2.90;;
13319;SDS011;59599;47.608;12.190;2024-03-07T11:01:38;4.00;;;2.43;;
13319;SDS011;59599;47.608;12.190;2024-03-07T11:04:05;4.40;;;2.60;;
13319;SDS011;59599;47.608;12.190;2024-03-07T11:06:32;4.33;;;2.50;;
13319;SDS011;59599;47.608;12.190;2024-03-07T11:08:59;2.93;;;2.63;;
13319;SDS011;59599;47.608;12.190;2024-03-07T11:11:26;3.77;;;2.60;;
13319;SDS011;59599;47.608;12.190;2024-03-07T11:13:53;3.37;;;2.70;;
13319;SDS011;59599;47.608;12.190;2024-03-07T11:16:20;3.67;;;2.83;;
13319;SDS011;59599;47.608;12.190;2024-03-07T11:21:41;3.23;;;2.90;;
13319;SDS011;59599;47.608;12.190;2024-03-07T11:24:08;3.67;;;3.07;;
13319;SDS011;59599;47.608;12.190;2024-03-07T11:26:34;3.10;;;2.80;;
13319;SDS011;59599;47.608;12.190;2024-03-07T11:29:00;3.00;;;2.60;;
13319;SDS011;59599;47.608;12.190;2024-03-07T11:31:26;4.67;;;3.20;;
13319;SDS011;59599;47.608;12.190;2024-03-07T11:36:46;3.83;;;3.07;;
13319;SDS011;59599;47.608;12.190;2024-03-07T11:42:01;3.30;;;3.00;;
13319;SDS011;59599;47.608;12.190;2024-03-07T11:44:31;2.97;;;2.67;;
13319;SDS011;59599;47.608;12.190;2024-03-07T11:46:59;3.83;;;2.70;;
13319;SDS011;59599;47.608;12.190;2024-03-07T11:49:33;4.27;;;3.00;;
13319;SDS011;59599;47.608;12.190;2024-03-07T11:52:01;3.20;;;2.77;;
13319;SDS011;59599;47.608;12.190;2024-03-07T11:54:30;3.33;;;2.67;;
13319;SDS011;59599;47.608;12.190;2024-03-07T11:56:59;4.00;;;3.20;;
13319;SDS011;59599;47.608;12.190;2024-03-07T11:59:25;3.50;;;3.20;;
13319;SDS011;59599;47.608;12.190;2024-03-07T12:01:57;4.23;;;3.73;;
13319;SDS011;59599;47.608;12.190;2024-03-07T12:04:26;4.73;;;3.40;;
13319;SDS011;59599;47.608;12.190;2024-03-07T12:06:52;5.07;;;3.20;;
13319;SDS011;59599;47.608;12.190;2024-03-07T12:09:18;5.63;;;3.33;;
13319;SDS011;59599;47.608;12.190;2024-03-07T12:11:49;3.80;;;3.40;;
13319;SDS011;59599;47.608;12.190;2024-03-07T12:14:18;3.17;;;2.87;;
13319;SDS011;59599;47.608;12.190;2024-03-07T12:16:44;3.53;;;3.10;;
13319;SDS011;59599;47.608;12.190;2024-03-07T12:19:10;3.93;;;3.37;;
13319;SDS011;59599;47.608;12.190;2024-03-07T12:21:38;5.63;;;3.70;;
13319;SDS011;59599;47.608;12.190;2024-03-07T12:24:11;3.90;;;3.50;;
13319;SDS011;59599;47.608;12.190;2024-03-07T12:26:40;4.03;;;3.63;;
13319;SDS011;59599;47.608;12.190;2024-03-07T12:29:10;3.63;;;3.03;;
13319;SDS011;59599;47.608;12.190;2024-03-07T12:31:39;3.90;;;3.23;;
13319;SDS011;59599;47.608;12.190;2024-03-07T12:34:08;4.17;;;3.77;;
13319;SDS011;59599;47.608;12.190;2024-03-07T12:36:37;7.53;;;3.90;;
13319;SDS011;59599;47.608;12.190;2024-03-07T12:39:24;4.83;;;4.00;;
13319;SDS011;59599;47.608;12.190;2024-03-07T12:41:57;4.03;;;3.63;;
13319;SDS011;59599;47.608;12.190;2024-03-07T12:44:23;4.53;;;3.40;;
13319;SDS011;59599;47.608;12.190;2024-03-07T12:46:52;6.20;;;3.50;;
13319;SDS011;59599;47.608;12.190;2024-03-07T12:49:24;4.57;;;3.73;;
13319;SDS011;59599;47.608;12.190;2024-03-07T12:51:55;6.63;;;3.93;;
13319;SDS011;59599;47.608;12.190;2024-03-07T12:54:22;4.70;;;4.20;;
13319;SDS011;59599;47.608;12.190;2024-03-07T12:56:47;5.47;;;4.37;;
13319;SDS011;59599;47.608;12.190;2024-03-07T12:59:16;4.10;;;3.70;;
13319;SDS011;59599;47.608;12.190;2024-03-07T13:01:44;4.73;;;4.20;;
13319;SDS011;59599;47.608;12.190;2024-03-07T13:04:12;4.93;;;4.03;;
13319;SDS011;59599;47.608;12.190;2024-03-07T13:06:39;4.43;;;4.03;;
13319;SDS011;59599;47.608;12.190;2024-03-07T13:09:08;5.13;;;4.33;;
13319;SDS011;59599;47.608;12.190;2024-03-07T13:11:36;4.83;;;4.33;;
13319;SDS011;59599;47.608;12.190;2024-03-07T13:14:05;5.30;;;4.80;;
13319;SDS011;59599;47.608;12.190;2024-03-07T13:16:32;6.50;;;4.47;;
13319;SDS011;59599;47.608;12.190;2024-03-07T13:18:58;6.77;;;5.40;;
13319;SDS011;59599;47.608;12.190;2024-03-07T13:21:23;7.10;;;6.10;;
13319;SDS011;59599;47.608;12.190;2024-03-07T13:23:52;8.07;;;6.30;;
13319;SDS011;59599;47.608;12.190;2024-03-07T13:26:20;11.70;;;6.07;;
13319;SDS011;59599;47.608;12.190;2024-03-07T13:28:49;7.40;;;6.53;;
13319;SDS011;59599;47.608;12.190;2024-03-07T13:31:15;7.80;;;6.13;;
13319;SDS011;59599;47.608;12.190;2024-03-07T13:33:42;8.80;;;6.60;;
13319;SDS011;59599;47.608;12.190;2024-03-07T13:36:08;9.47;;;6.70;;
13319;SDS011;59599;47.608;12.190;2024-03-07T13:38:34;8.50;;;6.70;;
13319;SDS011;59599;47.608;12.190;2024-03-07T13:41:00;8.90;;;6.37;;
13319;SDS011;59599;47.608;12.190;2024-03-07T13:43:28;8.90;;;7.23;;
13319;SDS011;59599;47.608;12.190;2024-03-07T13:45:55;10.33;;;7.43;;
13319;SDS011;59599;47.608;12.190;2024-03-07T13:48:21;8.73;;;6.80;;
13319;SDS011;59599;47.608;12.190;2024-03-07T13:50:47;9.43;;;7.07;;
13319;SDS011;59599;47.608;12.190;2024-03-07T13:53:18;9.73;;;8.53;;
13319;SDS011;59599;47.608;12.190;2024-03-07T13:58:36;12.93;;;9.10;;
13319;SDS011;59599;47.608;12.190;2024-03-07T14:01:28;10.70;;;9.00;;
13319;SDS011;59599;47.608;12.190;2024-03-07T14:04:31;12.60;;;10.23;;
13319;SDS011;59599;47.608;12.190;2024-03-07T14:07:11;15.47;;;9.80;;
13319;SDS011;59599;47.608;12.190;2024-03-07T14:15:54;12.10;;;10.23;;
13319;SDS011;59599;47.608;12.190;2024-03-07T14:27:33;14.67;;;11.20;;
13319;SDS011;59599;47.608;12.190;2024-03-07T14:32:55;15.57;;;12.20;;
13319;SDS011;59599;47.608;12.190;2024-03-07T14:35:30;17.73;;;12.93;;
13319;SDS011;59599;47.608;12.190;2024-03-07T14:38:05;14.57;;;12.30;;
13319;SDS011;59599;47.608;12.190;2024-03-07T14:40:46;15.77;;;13.00;;
13319;SDS011;59599;47.608;12.190;2024-03-07T14:43:14;17.13;;;13.13;;
13319;SDS011;59599;47.608;12.190;2024-03-07T14:45:41;18.80;;;12.73;;
13319;SDS011;59599;47.608;12.190;2024-03-07T14:48:08;18.30;;;13.13;;
13319;SDS011;59599;47.608;12.190;2024-03-07T14:50:37;19.10;;;13.90;;
13319;SDS011;59599;47.608;12.190;2024-03-07T14:53:05;16.07;;;13.43;;
13319;SDS011;59599;47.608;12.190;2024-03-07T14:55:31;18.37;;;13.17;;
13319;SDS011;59599;47.608;12.190;2024-03-07T14:58:00;17.57;;;13.93;;
13319;SDS011;59599;47.608;12.190;2024-03-07T15:00:26;17.17;;;14.17;;
13319;SDS011;59599;47.608;12.190;2024-03-07T15:02:53;19.87;;;15.30;;
13319;SDS011;59599;47.608;12.190;2024-03-07T15:05:23;16.90;;;14.63;;
13319;SDS011;59599;47.608;12.190;2024-03-07T15:07:50;21.07;;;15.50;;
13319;SDS011;59599;47.608;12.190;2024-03-07T15:10:21;18.07;;;14.90;;
13319;SDS011;59599;47.608;12.190;2024-03-07T15:12:49;20.53;;;16.00;;
13319;SDS011;59599;47.608;12.190;2024-03-07T15:15:14;20.03;;;16.20;;
13319;SDS011;59599;47.608;12.190;2024-03-07T15:17:43;24.47;;;16.93;;
13319;SDS011;59599;47.608;12.190;2024-03-07T15:20:10;21.73;;;16.50;;
13319;SDS011;59599;47.608;12.190;2024-03-07T15:23:06;20.90;;;16.80;;
13319;SDS011;59599;47.608;12.190;2024-03-07T15:25:32;23.07;;;17.53;;
13319;SDS011;59599;47.608;12.190;2024-03-07T15:28:01;28.20;;;18.70;;
13319;SDS011;59599;47.608;12.190;2024-03-07T15:30:28;26.23;;;18.73;;
13319;SDS011;59599;47.608;12.190;2024-03-07T15:33:00;26.87;;;19.47;;
13319;SDS011;59599;47.608;12.190;2024-03-07T15:35:26;21.90;;;17.07;;
13319;SDS011;59599;47.608;12.190;2024-03-07T15:37:52;22.37;;;16.43;;
13319;SDS011;59599;47.608;12.190;2024-03-07T15:40:19;21.00;;;17.23;;
13319;SDS011;59599;47.608;12.190;2024-03-07T15:42:46;25.40;;;18.83;;
13319;SDS011;59599;47.608;12.190;2024-03-07T15:45:19;24.90;;;18.83;;
13319;SDS011;59599;47.608;12.190;2024-03-07T15:47:48;24.07;;;19.57;;
13319;SDS011;59599;47.608;12.190;2024-03-07T15:50:14;24.50;;;19.93;;
13319;SDS011;59599;47.608;12.190;2024-03-07T15:52:43;28.33;;;20.37;;
13319;SDS011;59599;47.608;12.190;2024-03-07T15:55:09;24.67;;;19.80;;
13319;SDS011;59599;47.608;12.190;2024-03-07T15:57:44;25.03;;;20.77;;
13319;SDS011;59599;47.608;12.190;2024-03-07T16:00:15;26.10;;;20.43;;
13319;SDS011;59599;47.608;12.190;2024-03-07T16:02:53;25.07;;;21.10;;
13319;SDS011;59599;47.608;12.190;2024-03-07T16:05:23;27.67;;;21.97;;
13319;SDS011;59599;47.608;12.190;2024-03-07T16:07:50;27.60;;;21.40;;
13319;SDS011;59599;47.608;12.190;2024-03-07T16:10:16;29.97;;;21.90;;
13319;SDS011;59599;47.608;12.190;2024-03-07T16:12:42;26.23;;;21.93;;
13319;SDS011;59599;47.608;12.190;2024-03-07T16:15:08;31.80;;;22.13;;
13319;SDS011;59599;47.608;12.190;2024-03-07T16:17:35;33.37;;;23.77;;
13319;SDS011;59599;47.608;12.190;2024-03-07T16:20:04;28.50;;;21.30;;
13319;SDS011;59599;47.608;12.190;2024-03-07T16:22:36;28.90;;;22.03;;
13319;SDS011;59599;47.608;12.190;2024-03-07T16:25:07;29.50;;;22.10;;
13319;SDS011;59599;47.608;12.190;2024-03-07T16:27:33;28.27;;;22.83;;
13319;SDS011;59599;47.608;12.190;2024-03-07T16:29:58;28.33;;;21.93;;
13319;SDS011;59599;47.608;12.190;2024-03-07T16:32:24;28.60;;;21.40;;
13319;SDS011;59599;47.608;12.190;2024-03-07T16:34:49;28.10;;;22.17;;
13319;SDS011;59599;47.608;12.190;2024-03-07T16:37:15;28.53;;;21.40;;
13319;SDS011;59599;47.608;12.190;2024-03-07T16:39:41;28.57;;;21.80;;
13319;SDS011;59599;47.608;12.190;2024-03-07T16:42:10;26.87;;;22.07;;
13319;SDS011;59599;47.608;12.190;2024-03-07T16:44:35;26.33;;;20.30;;
13319;SDS011;59599;47.608;12.190;2024-03-07T16:47:04;27.33;;;21.93;;
13319;SDS011;59599;47.608;12.190;2024-03-07T16:49:32;26.57;;;20.53;;
13319;SDS011;59599;47.608;12.190;2024-03-07T16:51:58;27.20;;;22.37;;
13319;SDS011;59599;47.608;12.190;2024-03-07T16:54:24;27.50;;;21.70;;
13319;SDS011;59599;47.608;12.190;2024-03-07T16:56:50;25.40;;;20.40;;
13319;SDS011;59599;47.608;12.190;2024-03-07T16:59:15;25.43;;;18.73;;
13319;SDS011;59599;47.608;12.190;2024-03-07T17:01:41;21.60;;;17.23;;
13319;SDS011;59599;47.608;12.190;2024-03-07T17:04:10;22.53;;;17.33;;
13319;SDS011;59599;47.608;12.190;2024-03-07T17:06:37;24.97;;;17.40;;
13319;SDS011;59599;47.608;12.190;2024-03-07T17:09:04;21.63;;;16.13;;
13319;SDS011;59599;47.608;12.190;2024-03-07T17:11:35;23.13;;;15.17;;
13319;SDS011;59599;47.608;12.190;2024-03-07T17:14:01;17.37;;;15.00;;
13319;SDS011;59599;47.608;12.190;2024-03-07T17:16:30;17.63;;;15.10;;
13319;SDS011;59599;47.608;12.190;2024-03-07T17:18:56;19.40;;;14.53;;
13319;SDS011;59599;47.608;12.190;2024-03-07T17:21:22;18.77;;;13.90;;
13319;SDS011;59599;47.608;12.190;2024-03-07T17:23:49;17.70;;;14.57;;
13319;SDS011;59599;47.608;12.190;2024-03-07T17:26:14;17.93;;;14.20;;
13319;SDS011;59599;47.608;12.190;2024-03-07T17:28:41;22.23;;;15.47;;
13319;SDS011;59599;47.608;12.190;2024-03-07T17:31:07;18.63;;;15.10;;
13319;SDS011;59599;47.608;12.190;2024-03-07T17:33:33;20.10;;;15.00;;
13319;SDS011;59599;47.608;12.190;2024-03-07T17:35:59;17.00;;;14.73;;
13319;SDS011;59599;47.608;12.190;2024-03-07T17:38:30;17.43;;;13.43;;
13319;SDS011;59599;47.608;12.190;2024-03-07T17:40:58;19.17;;;13.97;;
13319;SDS011;59599;47.608;12.190;2024-03-07T17:43:24;19.23;;;14.23;;
13319;SDS011;59599;47.608;12.190;2024-03-07T17:45:49;20.17;;;14.17;;
13319;SDS011;59599;47.608;12.190;2024-03-07T17:48:15;17.07;;;13.17;;
13319;SDS011;59599;47.608;12.190;2024-03-07T17:50:41;16.00;;;13.13;;
13319;SDS011;59599;47.608;12.190;2024-03-07T17:53:08;16.00;;;13.53;;
13319;SDS011;59599;47.608;12.190;2024-03-07T17:55:35;17.13;;;12.97;;
13319;SDS011;59599;47.608;12.190;2024-03-07T17:58:01;17.20;;;13.33;;
13319;SDS011;59599;47.608;12.190;2024-03-07T18:00:30;18.03;;;14.17;;
13319;SDS011;59599;47.608;12.190;2024-03-07T18:02:57;18.00;;;13.50;;
13319;SDS011;59599;47.608;12.190;2024-03-07T18:05:25;19.13;;;12.90;;
13319;SDS011;59599;47.608;12.190;2024-03-07T18:07:53;19.93;;;13.90;;
13319;SDS011;59599;47.608;12.190;2024-03-07T18:10:20;20.83;;;15.10;;
13319;SDS011;59599;47.608;12.190;2024-03-07T18:12:50;16.57;;;13.33;;
13319;SDS011;59599;47.608;12.190;2024-03-07T18:15:20;17.67;;;13.93;;
13319;SDS011;59599;47.608;12.190;2024-03-07T18:17:46;18.60;;;14.30;;
13319;SDS011;59599;47.608;12.190;2024-03-07T18:20:16;21.27;;;14.23;;
13319;SDS011;59599;47.608;12.190;2024-03-07T18:22:46;17.20;;;13.50;;
13319;SDS011;59599;47.608;12.190;2024-03-07T18:25:15;19.00;;;13.70;;
13319;SDS011;59599;47.608;12.190;2024-03-07T18:27:45;22.00;;;13.17;;
13319;SDS011;59599;47.608;12.190;2024-03-07T18:30:11;17.97;;;14.10;;
13319;SDS011;59599;47.608;12.190;2024-03-07T18:32:38;17.77;;;13.10;;
13319;SDS011;59599;47.608;12.190;2024-03-07T18:35:07;17.30;;;13.63;;
13319;SDS011;59599;47.608;12.190;2024-03-07T18:37:33;17.00;;;13.63;;
13319;SDS011;59599;47.608;12.190;2024-03-07T18:40:02;16.73;;;13.17;;
13319;SDS011;59599;47.608;12.190;2024-03-07T18:42:33;18.60;;;14.27;;
13319;SDS011;59599;47.608;12.190;2024-03-07T18:44:59;17.77;;;14.57;;
13319;SDS011;59599;47.608;12.190;2024-03-07T18:47:34;18.13;;;14.07;;
13319;SDS011;59599;47.608;12.190;2024-03-07T18:50:00;19.40;;;13.60;;
13319;SDS011;59599;47.608;12.190;2024-03-07T18:52:26;14.90;;;12.67;;
13319;SDS011;59599;47.608;12.190;2024-03-07T18:54:52;17.97;;;12.97;;
13319;SDS011;59599;47.608;12.190;2024-03-07T18:57:18;20.73;;;13.00;;
13319;SDS011;59599;47.608;12.190;2024-03-07T18:59:46;17.07;;;12.37;;
13319;SDS011;59599;47.608;12.190;2024-03-07T19:02:12;15.63;;;11.50;;
13319;SDS011;59599;47.608;12.190;2024-03-07T19:04:38;15.50;;;11.77;;
13319;SDS011;59599;47.608;12.190;2024-03-07T19:07:07;14.63;;;12.27;;
13319;SDS011;59599;47.608;12.190;2024-03-07T19:09:35;17.87;;;12.57;;
13319;SDS011;59599;47.608;12.190;2024-03-07T19:12:01;15.40;;;12.07;;
13319;SDS011;59599;47.608;12.190;2024-03-07T19:14:28;17.47;;;13.17;;
13319;SDS011;59599;47.608;12.190;2024-03-07T19:16:54;16.03;;;13.17;;
13319;SDS011;59599;47.608;12.190;2024-03-07T19:19:20;15.53;;;12.20;;
13319;SDS011;59599;47.608;12.190;2024-03-07T19:21:48;16.80;;;13.27;;
13319;SDS011;59599;47.608;12.190;2024-03-07T19:24:14;16.03;;;13.33;;
13319;SDS011;59599;47.608;12.190;2024-03-07T19:26:42;19.40;;;13.50;;
13319;SDS011;59599;47.608;12.190;2024-03-07T19:29:13;17.47;;;12.53;;
13319;SDS011;59599;47.608;12.190;2024-03-07T19:31:48;17.37;;;13.10;;
13319;SDS011;59599;47.608;12.190;2024-03-07T19:34:14;15.40;;;13.13;;
13319;SDS011;59599;47.608;12.190;2024-03-07T19:36:41;15.60;;;12.97;;
13319;SDS011;59599;47.608;12.190;2024-03-07T19:39:18;18.10;;;12.83;;
13319;SDS011;59599;47.608;12.190;2024-03-07T19:41:46;18.23;;;12.37;;
13319;SDS011;59599;47.608;12.190;2024-03-07T19:44:14;15.80;;;12.73;;
13319;SDS011;59599;47.608;12.190;2024-03-07T19:46:42;15.43;;;12.33;;
13319;SDS011;59599;47.608;12.190;2024-03-07T19:49:09;15.90;;;12.00;;
13319;SDS011;59599;47.608;12.190;2024-03-07T19:51:35;15.87;;;12.57;;
13319;SDS011;59599;47.608;12.190;2024-03-07T19:54:01;18.40;;;12.77;;
13319;SDS011;59599;47.608;12.190;2024-03-07T19:56:30;16.70;;;12.93;;
13319;SDS011;59599;47.608;12.190;2024-03-07T19:58:57;16.60;;;13.30;;